createdAt,value
2022-10-31T00:01:37.553Z,9.38
2022-10-31T00:04:05.577Z,9.70
2022-10-31T00:06:32.340Z,9.10
2022-10-31T00:09:01.600Z,9.30
2022-10-31T00:11:28.248Z,9.82
2022-10-31T00:13:57.100Z,9.32
2022-10-31T00:16:26.091Z,9.60
2022-10-31T00:18:54.854Z,8.88
2022-10-31T00:21:23.930Z,9.45
2022-10-31T00:23:50.524Z,8.73
2022-10-31T00:26:17.711Z,9.20
2022-10-31T00:28:44.543Z,9.13
2022-10-31T00:31:12.894Z,9.80
2022-10-31T00:33:40.803Z,9.27
2022-10-31T00:36:08.660Z,9.80
2022-10-31T00:38:35.352Z,9.35
2022-10-31T00:41:02.027Z,10.38
2022-10-31T00:43:28.639Z,8.45
2022-10-31T00:45:55.321Z,9.32
2022-10-31T00:48:24.870Z,9.52
2022-10-31T00:50:53.158Z,10.10
2022-10-31T00:53:20.032Z,9.55
2022-10-31T00:55:49.797Z,9.20
2022-10-31T00:58:16.394Z,9.75
2022-10-31T01:00:46.780Z,9.23
2022-10-31T01:03:20.144Z,10.20
2022-10-31T01:06:06.696Z,9.27
2022-10-31T01:08:34.437Z,10.02
2022-10-31T01:11:02.274Z,10.13
2022-10-31T01:13:28.920Z,10.07
2022-10-31T01:15:57.753Z,10.02
2022-10-31T01:18:26.333Z,9.65
2022-10-31T01:21:00.238Z,10.10
2022-10-31T01:23:27.907Z,9.82
2022-10-31T01:26:06.537Z,10.15
2022-10-31T01:28:33.635Z,9.00
2022-10-31T01:31:05.983Z,9.98
2022-10-31T01:33:34.794Z,10.43
2022-10-31T01:36:01.558Z,9.80
2022-10-31T01:38:28.346Z,9.45
2022-10-31T01:40:55.103Z,8.80
2022-10-31T01:45:54.801Z,8.80
2022-10-31T01:48:25.719Z,9.27
2022-10-31T01:50:54.166Z,8.40
2022-10-31T01:53:25.940Z,8.90
2022-10-31T01:55:53.944Z,9.35
2022-10-31T01:58:24.675Z,10.02
2022-10-31T02:00:55.475Z,9.10
2022-10-31T02:03:23.606Z,10.27
2022-10-31T02:05:50.994Z,9.10
2022-10-31T02:08:26.138Z,9.80
2022-10-31T02:10:53.139Z,9.82
2022-10-31T02:13:20.695Z,9.55
2022-10-31T02:15:54.622Z,10.02
2022-10-31T02:18:21.790Z,8.68
2022-10-31T02:20:55.478Z,8.57
2022-10-31T02:23:39.234Z,9.32
2022-10-31T02:26:19.196Z,8.98
2022-10-31T02:29:01.156Z,9.82
2022-10-31T02:31:30.826Z,11.80
2022-10-31T02:34:02.352Z,10.70
2022-10-31T02:36:42.778Z,10.55
2022-10-31T02:39:25.654Z,10.50
2022-10-31T02:42:08.969Z,11.35
2022-10-31T02:44:37.243Z,10.05
2022-10-31T02:47:06.829Z,10.10
2022-10-31T02:49:41.516Z,10.38
2022-10-31T02:52:20.415Z,10.43
2022-10-31T02:54:48.285Z,10.15
2022-10-31T02:57:17.658Z,10.23
2022-10-31T02:59:48.885Z,10.13
2022-10-31T03:02:31.291Z,9.65
2022-10-31T03:05:06.084Z,10.60
2022-10-31T03:08:03.202Z,10.73
2022-10-31T03:10:56.882Z,10.77
2022-10-31T03:13:27.544Z,9.73
2022-10-31T03:16:00.103Z,11.07
2022-10-31T03:18:33.207Z,10.30
2022-10-31T03:21:05.039Z,10.98
2022-10-31T03:23:33.170Z,10.60
2022-10-31T03:26:02.045Z,10.73
2022-10-31T03:28:42.298Z,10.07
2022-10-31T03:31:10.537Z,10.80
2022-10-31T03:33:41.607Z,11.02
2022-10-31T03:36:09.528Z,10.35
2022-10-31T03:38:36.779Z,10.23
2022-10-31T03:41:06.423Z,10.45
2022-10-31T03:43:35.624Z,9.63
2022-10-31T03:46:02.282Z,9.43
2022-10-31T03:48:28.940Z,9.77
2022-10-31T03:50:58.608Z,9.85
2022-10-31T03:53:44.069Z,10.07
2022-10-31T03:56:21.027Z,10.45
2022-10-31T03:58:59.001Z,10.20
2022-10-31T04:01:26.961Z,9.82
2022-10-31T04:03:54.339Z,10.23
2022-10-31T04:06:21.710Z,10.63
2022-10-31T04:09:00.211Z,10.90
2022-10-31T04:11:31.243Z,11.50
2022-10-31T04:14:38.995Z,10.35
2022-10-31T04:17:08.984Z,10.77
2022-10-31T04:19:39.490Z,10.65
2022-10-31T04:22:06.203Z,10.55
2022-10-31T04:24:32.877Z,10.15
2022-10-31T04:26:59.562Z,10.70
2022-10-31T04:29:27.562Z,11.05
2022-10-31T04:31:54.256Z,11.13
2022-10-31T04:34:21.412Z,10.40
2022-10-31T04:36:48.035Z,10.48
2022-10-31T04:39:16.401Z,10.45
2022-10-31T04:42:04.435Z,11.60
2022-10-31T04:44:32.164Z,11.70
2022-10-31T04:47:03.358Z,11.57
2022-10-31T04:49:31.220Z,10.05
2022-10-31T04:51:57.902Z,12.23
2022-10-31T04:54:24.859Z,11.25
2022-10-31T04:57:10.237Z,10.80
2022-10-31T04:59:37.806Z,11.80
2022-10-31T05:02:04.490Z,10.98
2022-10-31T05:04:45.946Z,11.77
2022-10-31T05:07:12.635Z,10.52
2022-10-31T05:09:39.424Z,10.98
2022-10-31T05:12:06.319Z,11.10
2022-10-31T05:14:51.529Z,10.38
2022-10-31T05:17:36.983Z,11.02
2022-10-31T05:20:27.111Z,11.93
2022-10-31T05:23:17.235Z,10.90
2022-10-31T05:25:43.905Z,11.15
2022-10-31T05:28:10.595Z,11.43
2022-10-31T05:30:37.919Z,10.85
2022-10-31T05:33:07.576Z,10.77
2022-10-31T05:35:53.041Z,11.43
2022-10-31T05:38:49.154Z,10.88
2022-10-31T05:41:25.294Z,11.50
2022-10-31T05:43:55.104Z,11.30
2022-10-31T05:46:27.311Z,12.00
2022-10-31T05:49:13.992Z,11.32
2022-10-31T05:51:49.646Z,12.02
2022-10-31T05:54:16.356Z,11.95
2022-10-31T05:56:45.813Z,12.05
2022-10-31T05:59:12.715Z,12.52
2022-10-31T06:01:40.247Z,12.98
2022-10-31T06:04:18.914Z,12.57
2022-10-31T06:06:45.644Z,12.75
2022-10-31T06:09:12.498Z,11.27
2022-10-31T06:11:39.919Z,11.95
2022-10-31T06:14:06.953Z,12.68
2022-10-31T06:16:59.692Z,12.23
2022-10-31T06:19:38.611Z,12.13
2022-10-31T06:22:05.503Z,11.90
2022-10-31T06:24:33.146Z,12.60
2022-10-31T06:27:26.231Z,12.20
2022-10-31T06:29:53.801Z,11.90
2022-10-31T06:32:30.137Z,12.13
2022-10-31T06:34:56.861Z,12.40
2022-10-31T06:37:24.428Z,12.82
2022-10-31T06:39:53.143Z,12.27
2022-10-31T06:42:20.693Z,11.15
2022-10-31T06:44:48.147Z,12.38
2022-10-31T06:47:56.632Z,11.98
2022-10-31T06:50:27.576Z,13.48
2022-10-31T06:52:55.445Z,12.50
2022-10-31T06:55:23.702Z,13.82
2022-10-31T06:57:55.576Z,13.35
2022-10-31T07:00:25.663Z,13.70
2022-10-31T07:03:04.488Z,13.48
2022-10-31T07:05:31.737Z,13.85
2022-10-31T07:08:04.325Z,13.25
2022-10-31T07:10:35.691Z,13.45
2022-10-31T07:13:10.474Z,14.70
2022-10-31T07:15:41.320Z,14.18
2022-10-31T07:18:11.206Z,13.95
2022-10-31T07:20:38.468Z,14.77
2022-10-31T07:23:05.802Z,13.55
2022-10-31T07:25:33.279Z,15.00
2022-10-31T07:28:18.794Z,13.77
2022-10-31T07:30:57.255Z,13.35
2022-10-31T07:33:26.771Z,14.20
2022-10-31T07:36:19.515Z,13.75
2022-10-31T07:38:48.609Z,13.52
2022-10-31T07:41:15.358Z,13.32
2022-10-31T07:43:44.411Z,13.18
2022-10-31T07:46:17.077Z,13.63
2022-10-31T07:48:46.622Z,14.35
2022-10-31T07:51:32.077Z,14.32
2022-10-31T07:54:04.826Z,14.00
2022-10-31T07:56:32.573Z,13.60
2022-10-31T07:58:59.948Z,14.05
2022-10-31T08:01:27.016Z,14.30
2022-10-31T08:04:13.631Z,13.35
2022-10-31T08:06:59.036Z,13.15
2022-10-31T08:09:31.248Z,13.85
2022-10-31T08:12:02.479Z,13.60
2022-10-31T08:14:30.655Z,14.10
2022-10-31T08:16:57.798Z,14.85
2022-10-31T08:19:31.164Z,14.30
2022-10-31T08:22:00.124Z,14.43
2022-10-31T08:24:27.229Z,14.23
2022-10-31T08:26:55.282Z,13.23
2022-10-31T08:29:21.982Z,14.18
2022-10-31T08:31:48.681Z,14.02
2022-10-31T08:34:41.577Z,15.38
2022-10-31T08:37:28.215Z,13.52
2022-10-31T08:39:56.841Z,14.30
2022-10-31T08:42:23.542Z,13.07
2022-10-31T08:44:50.659Z,13.07
2022-10-31T08:47:20.952Z,13.25
2022-10-31T08:49:48.941Z,12.82
2022-10-31T08:52:16.088Z,13.50
2022-10-31T08:54:44.495Z,12.85
2022-10-31T08:57:37.526Z,13.25
2022-10-31T09:00:05.559Z,12.60
2022-10-31T09:03:02.445Z,13.50
2022-10-31T09:05:31.933Z,14.75
2022-10-31T09:08:00.053Z,18.85
2022-10-31T09:10:28.702Z,16.65
2022-10-31T09:12:57.291Z,14.55
2022-10-31T09:15:34.219Z,15.85
2022-10-31T09:18:16.737Z,15.07
2022-10-31T09:20:55.446Z,14.68
2022-10-31T09:23:24.154Z,13.38
2022-10-31T09:25:52.829Z,13.25
2022-10-31T09:28:38.004Z,14.23
2022-10-31T09:31:09.256Z,13.05
2022-10-31T09:33:50.840Z,12.27
2022-10-31T09:36:39.254Z,13.90
2022-10-31T09:39:13.226Z,13.98
2022-10-31T09:41:41.230Z,14.05
2022-10-31T09:44:15.665Z,14.02
2022-10-31T09:46:52.277Z,14.20
2022-10-31T09:49:46.103Z,13.80
2022-10-31T09:52:29.549Z,14.75
2022-10-31T09:55:07.725Z,14.13
2022-10-31T09:57:37.127Z,12.82
2022-10-31T10:00:06.435Z,13.10
2022-10-31T10:02:48.994Z,12.45
2022-10-31T10:05:46.761Z,12.77
2022-10-31T10:08:27.283Z,13.95
2022-10-31T10:11:37.699Z,14.43
2022-10-31T10:14:45.689Z,12.95
2022-10-31T10:18:02.073Z,13.48
2022-10-31T10:20:36.162Z,14.48
2022-10-31T10:23:25.380Z,14.45
2022-10-31T10:26:07.433Z,14.38
2022-10-31T10:28:39.665Z,15.40
2022-10-31T10:31:17.120Z,14.40
2022-10-31T10:34:07.324Z,14.32
2022-10-31T10:36:40.490Z,16.15
2022-10-31T10:39:16.943Z,15.65
2022-10-31T10:41:47.860Z,15.85
2022-10-31T10:44:16.630Z,17.42
2022-10-31T10:47:08.796Z,14.52
2022-10-31T10:49:46.424Z,16.67
2022-10-31T10:52:50.609Z,15.52
2022-10-31T10:56:26.985Z,14.35
2022-10-31T10:58:54.399Z,14.98
2022-10-31T11:01:23.380Z,14.40
2022-10-31T11:03:50.185Z,15.55
2022-10-31T11:06:26.762Z,15.10
2022-10-31T11:08:54.181Z,14.35
2022-10-31T11:11:31.638Z,14.07
2022-10-31T11:14:04.063Z,15.32
2022-10-31T11:16:36.772Z,15.13
2022-10-31T11:19:18.826Z,14.00
2022-10-31T11:21:52.615Z,14.35
2022-10-31T11:24:22.959Z,14.50
2022-10-31T11:26:51.333Z,15.68
2022-10-31T11:29:25.696Z,14.55
2022-10-31T11:31:57.223Z,14.80
2022-10-31T11:34:33.086Z,14.13
2022-10-31T11:37:21.421Z,14.88
2022-10-31T11:39:55.011Z,14.90
2022-10-31T11:42:23.631Z,13.60
2022-10-31T11:44:51.291Z,13.60
2022-10-31T11:47:19.107Z,14.52
2022-10-31T11:49:50.420Z,13.88
2022-10-31T11:52:23.650Z,14.45
2022-10-31T11:55:03.200Z,15.00
2022-10-31T11:57:30.696Z,13.65
2022-10-31T11:59:59.642Z,12.55
2022-10-31T12:02:26.794Z,14.32
2022-10-31T12:05:06.099Z,12.52
2022-10-31T12:07:32.868Z,14.13
2022-10-31T12:09:59.637Z,14.25
2022-10-31T12:12:26.311Z,13.38
2022-10-31T12:15:05.363Z,13.18
2022-10-31T12:17:41.651Z,14.00
2022-10-31T12:20:20.034Z,13.52
2022-10-31T12:23:11.219Z,13.43
2022-10-31T12:25:49.501Z,13.30
2022-10-31T12:28:28.405Z,14.23
2022-10-31T12:30:59.176Z,13.75
2022-10-31T12:33:51.252Z,13.55
2022-10-31T12:36:33.140Z,13.13
2022-10-31T12:39:05.802Z,12.60
2022-10-31T12:42:31.014Z,12.52
2022-10-31T12:45:28.993Z,12.93
2022-10-31T12:48:04.746Z,13.07
2022-10-31T12:51:03.065Z,13.32
2022-10-31T12:53:51.255Z,12.55
2022-10-31T12:56:37.406Z,14.90
2022-10-31T12:59:22.766Z,12.40
2022-10-31T13:01:54.768Z,13.48
2022-10-31T13:04:36.620Z,12.00
2022-10-31T13:07:16.374Z,12.30
2022-10-31T13:09:51.810Z,13.77
2022-10-31T13:12:20.847Z,13.35
2022-10-31T13:14:55.716Z,13.10
2022-10-31T13:17:27.364Z,12.45
2022-10-31T13:20:04.429Z,12.57
2022-10-31T13:22:36.619Z,12.30
2022-10-31T13:25:12.955Z,12.07
2022-10-31T13:27:56.550Z,13.25
2022-10-31T13:30:27.140Z,12.18
2022-10-31T13:33:07.870Z,12.18
2022-10-31T13:35:56.384Z,11.95
2022-10-31T13:38:38.735Z,12.57
2022-10-31T13:41:18.732Z,13.15
2022-10-31T13:43:51.173Z,13.95
2022-10-31T13:46:37.102Z,12.27
2022-10-31T13:49:04.711Z,12.63
2022-10-31T13:51:36.130Z,12.35
2022-10-31T13:54:20.686Z,12.55
2022-10-31T13:56:54.000Z,12.88
2022-10-31T13:59:25.162Z,11.88
2022-10-31T14:01:58.037Z,12.77
2022-10-31T14:04:33.799Z,13.32
2022-10-31T14:07:12.183Z,13.48
2022-10-31T14:10:12.831Z,13.70
2022-10-31T14:12:43.593Z,13.45
2022-10-31T14:15:20.472Z,13.80
2022-10-31T14:17:53.702Z,14.85
2022-10-31T14:20:20.753Z,14.48
2022-10-31T14:22:47.514Z,14.88
2022-10-31T14:25:37.463Z,13.93
2022-10-31T14:28:20.080Z,13.52
2022-10-31T14:30:58.392Z,13.90
2022-10-31T14:33:29.951Z,14.60
2022-10-31T14:36:17.339Z,14.32
2022-10-31T14:38:57.155Z,12.95
2022-10-31T14:41:48.699Z,13.77
2022-10-31T14:44:44.294Z,13.90
2022-10-31T14:47:26.358Z,13.25
2022-10-31T14:50:25.520Z,13.82
2022-10-31T14:52:56.025Z,14.38
2022-10-31T14:55:24.638Z,14.18
2022-10-31T14:58:14.229Z,15.23
2022-10-31T15:00:44.267Z,14.32
2022-10-31T15:03:18.361Z,14.27
2022-10-31T15:05:57.566Z,15.63
2022-10-31T15:08:35.121Z,15.45
2022-10-31T15:11:25.907Z,16.02
2022-10-31T15:13:55.683Z,14.15
2022-10-31T15:16:25.711Z,14.70
2022-10-31T15:19:14.343Z,16.20
2022-10-31T15:21:46.678Z,16.02
2022-10-31T15:24:19.615Z,15.85
2022-10-31T15:26:49.226Z,15.98
2022-10-31T15:29:23.496Z,15.40
2022-10-31T15:31:54.900Z,15.80
2022-10-31T15:34:26.223Z,16.30
2022-10-31T15:36:52.937Z,15.15
2022-10-31T15:39:20.980Z,15.65
2022-10-31T15:41:54.950Z,16.58
2022-10-31T15:44:30.767Z,15.48
2022-10-31T15:47:06.340Z,15.98
2022-10-31T15:49:37.315Z,16.17
2022-10-31T15:52:07.612Z,17.08
2022-10-31T15:54:34.392Z,16.27
2022-10-31T15:57:02.008Z,16.05
2022-10-31T15:59:30.003Z,16.10
2022-10-31T16:02:09.055Z,17.63
2022-10-31T16:04:36.204Z,16.30
2022-10-31T16:07:16.447Z,16.30
2022-10-31T16:10:00.494Z,16.27
2022-10-31T16:12:36.660Z,16.02
2022-10-31T16:15:05.073Z,17.15
2022-10-31T16:17:32.729Z,15.68
2022-10-31T16:20:05.890Z,16.52
2022-10-31T16:22:35.771Z,16.42
2022-10-31T16:25:09.529Z,17.38
2022-10-31T16:27:37.106Z,17.40
2022-10-31T16:30:26.355Z,16.75
2022-10-31T16:32:59.153Z,17.05
2022-10-31T16:35:36.949Z,17.63
2022-10-31T16:38:04.716Z,16.23
2022-10-31T16:40:32.015Z,16.98
2022-10-31T16:43:00.501Z,17.73
2022-10-31T16:45:29.728Z,18.52
2022-10-31T16:48:09.911Z,18.23
2022-10-31T16:50:38.274Z,17.70
2022-10-31T16:53:20.521Z,18.00
2022-10-31T16:55:57.217Z,17.02
2022-10-31T16:58:25.670Z,19.15
2022-10-31T17:00:52.805Z,18.13
2022-10-31T17:03:22.879Z,17.40
2022-10-31T17:05:49.556Z,17.38
2022-10-31T17:08:18.012Z,18.77
2022-10-31T17:10:46.028Z,17.88
2022-10-31T17:13:21.421Z,17.60
2022-10-31T17:15:51.770Z,19.08
2022-10-31T17:18:21.667Z,18.90
2022-10-31T17:21:00.053Z,19.67
2022-10-31T17:23:28.319Z,19.63
2022-10-31T17:25:56.503Z,19.05
2022-10-31T17:28:23.195Z,18.55
2022-10-31T17:30:49.936Z,16.95
2022-10-31T17:33:17.281Z,19.15
2022-10-31T17:35:44.923Z,18.10
2022-10-31T17:38:12.312Z,18.42
2022-10-31T17:40:40.345Z,18.90
2022-10-31T17:43:07.086Z,18.15
2022-10-31T17:45:33.729Z,18.80
2022-10-31T17:48:00.707Z,19.00
2022-10-31T17:50:27.475Z,17.90
2022-10-31T17:52:54.202Z,18.75
2022-10-31T17:55:20.841Z,19.42
2022-10-31T17:57:47.579Z,19.90
2022-10-31T18:00:17.623Z,21.15
2022-10-31T18:02:44.394Z,19.83
2022-10-31T18:05:11.360Z,20.58
2022-10-31T18:07:39.683Z,19.13
2022-10-31T18:10:07.768Z,19.63
2022-10-31T18:12:38.585Z,20.60
2022-10-31T18:15:06.263Z,19.08
2022-10-31T18:17:35.822Z,18.58
2022-10-31T18:20:07.811Z,17.50
2022-10-31T18:22:38.688Z,16.45
2022-10-31T18:25:06.289Z,18.50
2022-10-31T18:27:33.011Z,18.23
2022-10-31T18:29:59.664Z,17.40
2022-10-31T18:32:27.662Z,18.75
2022-10-31T18:34:55.834Z,18.23
2022-10-31T18:37:22.510Z,16.75
2022-10-31T18:39:49.326Z,17.17
2022-10-31T18:42:16.115Z,17.17
2022-10-31T18:44:43.201Z,18.15
2022-10-31T18:47:09.907Z,18.27
2022-10-31T18:49:37.679Z,18.83
2022-10-31T18:52:04.831Z,18.88
2022-10-31T18:54:33.249Z,19.45
2022-10-31T18:56:59.991Z,20.30
2022-10-31T18:59:26.616Z,18.98
2022-10-31T19:01:53.472Z,19.52
2022-10-31T19:04:21.122Z,19.17
2022-10-31T19:06:47.781Z,18.00
2022-10-31T19:09:14.414Z,17.92
2022-10-31T19:11:42.631Z,16.95
2022-10-31T19:14:11.142Z,17.75
2022-10-31T19:16:37.876Z,18.27
2022-10-31T19:19:04.758Z,16.20
2022-10-31T19:21:32.414Z,16.15
2022-10-31T19:24:00.069Z,17.63
2022-10-31T19:26:28.092Z,16.58
2022-10-31T19:28:55.881Z,15.88
2022-10-31T19:31:22.725Z,18.10
2022-10-31T19:33:49.349Z,16.98
2022-10-31T19:36:18.501Z,17.27
2022-10-31T19:38:47.993Z,18.27
2022-10-31T19:41:19.147Z,19.67
2022-10-31T19:43:48.414Z,18.27
2022-10-31T19:46:27.712Z,18.55
2022-10-31T19:49:01.016Z,17.83
2022-10-31T19:51:28.626Z,19.88
2022-10-31T19:53:55.277Z,21.55
2022-10-31T19:56:24.592Z,20.15
2022-10-31T19:58:52.467Z,20.42
2022-10-31T20:01:22.097Z,20.13
2022-10-31T20:03:49.264Z,18.70
2022-10-31T20:06:24.714Z,17.80
2022-10-31T20:08:52.421Z,17.73
2022-10-31T20:11:19.325Z,16.60
2022-10-31T20:13:46.230Z,17.17
2022-10-31T20:16:14.146Z,17.63
2022-10-31T20:18:43.835Z,16.90
2022-10-31T20:21:12.888Z,17.30
2022-10-31T20:23:39.960Z,16.38
2022-10-31T20:26:09.339Z,16.08
2022-10-31T20:28:41.369Z,17.02
2022-10-31T20:31:23.101Z,15.60
2022-10-31T20:33:49.933Z,15.00
2022-10-31T20:36:21.038Z,15.70
2022-10-31T20:38:47.968Z,14.02
2022-10-31T20:41:17.428Z,12.88
2022-10-31T20:43:44.993Z,12.13
2022-10-31T20:46:17.576Z,12.45
2022-10-31T20:48:44.908Z,12.90
2022-10-31T20:51:19.764Z,12.43
2022-10-31T20:53:46.445Z,12.57
2022-10-31T20:56:16.214Z,11.75
2022-10-31T20:58:45.091Z,12.77
2022-10-31T21:01:29.222Z,12.68
2022-10-31T21:03:58.983Z,12.40
2022-10-31T21:06:26.475Z,12.63
2022-10-31T21:08:54.570Z,11.68
2022-10-31T21:11:24.527Z,12.93
2022-10-31T21:13:53.838Z,12.90
2022-10-31T21:16:26.116Z,13.55
2022-10-31T21:18:53.501Z,12.90
2022-10-31T21:21:32.561Z,14.32
2022-10-31T21:24:02.150Z,13.18
2022-10-31T21:26:31.094Z,13.00
2022-10-31T21:29:03.871Z,13.48
2022-10-31T21:31:36.137Z,13.05
2022-10-31T21:34:04.445Z,13.25
2022-10-31T21:36:32.587Z,12.65
2022-10-31T21:39:00.537Z,12.80
2022-10-31T21:41:29.047Z,14.10
2022-10-31T21:43:55.810Z,14.80
2022-10-31T21:46:26.125Z,13.68
2022-10-31T21:48:53.352Z,14.73
2022-10-31T21:51:21.350Z,15.68
2022-10-31T21:54:08.000Z,15.82
2022-10-31T21:56:34.867Z,15.52
2022-10-31T21:59:16.538Z,13.55
2022-10-31T22:01:43.340Z,13.05
2022-10-31T22:04:11.160Z,12.95
2022-10-31T22:06:41.802Z,14.02
2022-10-31T22:09:11.027Z,12.43
2022-10-31T22:11:39.819Z,12.60
2022-10-31T22:14:06.595Z,13.25
2022-10-31T22:16:35.839Z,11.45
2022-10-31T22:19:06.411Z,11.75
2022-10-31T22:21:40.979Z,11.25
2022-10-31T22:24:09.211Z,11.40
2022-10-31T22:26:36.916Z,10.35
2022-10-31T22:29:06.478Z,11.43
2022-10-31T22:31:34.150Z,10.57
2022-10-31T22:34:01.138Z,10.68
2022-10-31T22:36:29.422Z,10.57
2022-10-31T22:38:56.345Z,9.95
2022-10-31T22:41:32.509Z,9.90
2022-10-31T22:44:10.468Z,10.45
2022-10-31T22:46:38.449Z,12.38
2022-10-31T22:49:07.731Z,12.77
2022-10-31T22:51:39.829Z,12.40
2022-10-31T22:54:14.803Z,12.38
2022-10-31T22:56:42.350Z,12.75
2022-10-31T22:59:12.462Z,12.40
2022-10-31T23:01:40.318Z,12.98
2022-10-31T23:06:41.445Z,11.48
2022-10-31T23:09:08.397Z,12.40
2022-10-31T23:11:38.678Z,11.93
2022-10-31T23:14:13.944Z,10.70
2022-10-31T23:16:48.363Z,11.13
2022-10-31T23:19:27.484Z,9.93
2022-10-31T23:22:03.064Z,8.07
2022-10-31T23:24:35.901Z,7.82
2022-10-31T23:27:09.330Z,7.82
2022-10-31T23:29:46.596Z,6.40
2022-10-31T23:32:22.610Z,6.10
2022-10-31T23:34:51.775Z,5.28
2022-10-31T23:37:19.602Z,5.60
2022-10-31T23:39:47.247Z,5.50
2022-10-31T23:42:14.247Z,4.80
2022-10-31T23:44:41.082Z,4.53
2022-10-31T23:47:07.960Z,4.55
2022-10-31T23:49:34.976Z,4.47
2022-10-31T23:52:02.101Z,4.15
2022-10-31T23:54:29.320Z,3.78
2022-10-31T23:56:56.315Z,3.88
2022-10-31T23:59:27.931Z,3.72
